sensor_id;sensor_type;location;lat;lon;timestamp;P1;durP1;ratioP1;P2;durP2;ratioP2
19889;SDS011;10107;51.198;6.824;2023-08-08T00:01:39;4.00;;;2.40;;
19889;SDS011;10107;51.198;6.824;2023-08-08T00:05:43;2.28;;;2.00;;
19889;SDS011;10107;51.198;6.824;2023-08-08T00:09:46;4.70;;;2.30;;
19889;SDS011;10107;51.198;6.824;2023-08-08T00:13:49;4.97;;;2.43;;
19889;SDS011;10107;51.198;6.824;2023-08-08T00:17:52;3.50;;;2.50;;
19889;SDS011;10107;51.198;6.824;2023-08-08T00:21:54;2.10;;;1.60;;
19889;SDS011;10107;51.198;6.824;2023-08-08T00:25:56;4.30;;;2.47;;
19889;SDS011;10107;51.198;6.824;2023-08-08T00:29:58;2.50;;;1.90;;
19889;SDS011;10107;51.198;6.824;2023-08-08T00:34:01;2.67;;;2.00;;
19889;SDS011;10107;51.198;6.824;2023-08-08T00:38:03;3.30;;;2.13;;
19889;SDS011;10107;51.198;6.824;2023-08-08T00:42:05;2.42;;;1.90;;
19889;SDS011;10107;51.198;6.824;2023-08-08T00:46:07;3.55;;;2.00;;
19889;SDS011;10107;51.198;6.824;2023-08-08T00:50:10;1.98;;;1.63;;
19889;SDS011;10107;51.198;6.824;2023-08-08T00:54:14;2.80;;;2.05;;
19889;SDS011;10107;51.198;6.824;2023-08-08T00:58:16;2.22;;;2.03;;
19889;SDS011;10107;51.198;6.824;2023-08-08T01:02:19;2.25;;;1.70;;
19889;SDS011;10107;51.198;6.824;2023-08-08T01:06:23;2.88;;;2.20;;
19889;SDS011;10107;51.198;6.824;2023-08-08T01:10:31;3.10;;;2.30;;
19889;SDS011;10107;51.198;6.824;2023-08-08T01:14:36;2.63;;;1.92;;
19889;SDS011;10107;51.198;6.824;2023-08-08T01:18:39;2.35;;;1.95;;
19889;SDS011;10107;51.198;6.824;2023-08-08T01:22:48;4.13;;;2.50;;
19889;SDS011;10107;51.198;6.824;2023-08-08T01:26:58;3.78;;;2.45;;
19889;SDS011;10107;51.198;6.824;2023-08-08T01:31:01;6.13;;;2.95;;
19889;SDS011;10107;51.198;6.824;2023-08-08T01:35:03;3.45;;;2.55;;
19889;SDS011;10107;51.198;6.824;2023-08-08T01:39:06;3.75;;;2.05;;
19889;SDS011;10107;51.198;6.824;2023-08-08T01:43:16;3.20;;;2.40;;
19889;SDS011;10107;51.198;6.824;2023-08-08T01:47:19;4.15;;;2.60;;
19889;SDS011;10107;51.198;6.824;2023-08-08T01:51:21;4.57;;;2.40;;
19889;SDS011;10107;51.198;6.824;2023-08-08T01:55:24;2.17;;;1.83;;
19889;SDS011;10107;51.198;6.824;2023-08-08T01:59:28;3.05;;;2.40;;
19889;SDS011;10107;51.198;6.824;2023-08-08T02:03:30;4.35;;;2.63;;
19889;SDS011;10107;51.198;6.824;2023-08-08T02:07:32;3.88;;;2.33;;
19889;SDS011;10107;51.198;6.824;2023-08-08T02:11:34;3.05;;;2.10;;
19889;SDS011;10107;51.198;6.824;2023-08-08T02:15:37;5.60;;;2.83;;
19889;SDS011;10107;51.198;6.824;2023-08-08T02:19:39;5.00;;;2.45;;
19889;SDS011;10107;51.198;6.824;2023-08-08T02:23:41;4.20;;;2.55;;
19889;SDS011;10107;51.198;6.824;2023-08-08T02:27:43;2.65;;;2.20;;
19889;SDS011;10107;51.198;6.824;2023-08-08T02:31:46;4.40;;;2.38;;
19889;SDS011;10107;51.198;6.824;2023-08-08T02:35:48;3.20;;;2.40;;
19889;SDS011;10107;51.198;6.824;2023-08-08T02:39:54;4.75;;;2.72;;
19889;SDS011;10107;51.198;6.824;2023-08-08T02:43:56;2.83;;;2.30;;
19889;SDS011;10107;51.198;6.824;2023-08-08T02:47:59;4.38;;;2.17;;
19889;SDS011;10107;51.198;6.824;2023-08-08T02:52:01;4.65;;;2.45;;
19889;SDS011;10107;51.198;6.824;2023-08-08T02:56:08;3.47;;;2.47;;
19889;SDS011;10107;51.198;6.824;2023-08-08T03:00:15;3.78;;;2.15;;
19889;SDS011;10107;51.198;6.824;2023-08-08T03:04:22;4.75;;;2.15;;
19889;SDS011;10107;51.198;6.824;2023-08-08T03:08:24;3.42;;;2.30;;
19889;SDS011;10107;51.198;6.824;2023-08-08T03:12:28;4.90;;;2.30;;
19889;SDS011;10107;51.198;6.824;2023-08-08T03:16:31;4.80;;;2.35;;
19889;SDS011;10107;51.198;6.824;2023-08-08T03:20:35;3.20;;;2.20;;
19889;SDS011;10107;51.198;6.824;2023-08-08T03:24:38;3.63;;;2.20;;
19889;SDS011;10107;51.198;6.824;2023-08-08T03:28:40;3.60;;;2.20;;
19889;SDS011;10107;51.198;6.824;2023-08-08T03:32:47;3.20;;;2.20;;
19889;SDS011;10107;51.198;6.824;2023-08-08T03:36:50;5.37;;;2.77;;
19889;SDS011;10107;51.198;6.824;2023-08-08T03:40:51;4.10;;;1.70;;
19889;SDS011;10107;51.198;6.824;2023-08-08T03:44:54;4.93;;;2.38;;
19889;SDS011;10107;51.198;6.824;2023-08-08T03:48:55;4.55;;;2.30;;
19889;SDS011;10107;51.198;6.824;2023-08-08T03:52:59;7.32;;;2.47;;
19889;SDS011;10107;51.198;6.824;2023-08-08T03:57:04;4.07;;;2.40;;
19889;SDS011;10107;51.198;6.824;2023-08-08T04:01:06;5.20;;;2.67;;
19889;SDS011;10107;51.198;6.824;2023-08-08T04:05:08;5.15;;;2.60;;
19889;SDS011;10107;51.198;6.824;2023-08-08T04:09:11;4.93;;;2.80;;
19889;SDS011;10107;51.198;6.824;2023-08-08T04:13:13;6.30;;;2.60;;
19889;SDS011;10107;51.198;6.824;2023-08-08T04:17:15;4.93;;;2.58;;
19889;SDS011;10107;51.198;6.824;2023-08-08T04:21:17;4.45;;;2.55;;
19889;SDS011;10107;51.198;6.824;2023-08-08T04:25:20;5.45;;;2.80;;
19889;SDS011;10107;51.198;6.824;2023-08-08T04:29:23;4.43;;;2.90;;
19889;SDS011;10107;51.198;6.824;2023-08-08T04:33:25;5.05;;;3.03;;
19889;SDS011;10107;51.198;6.824;2023-08-08T04:37:27;6.45;;;3.30;;
19889;SDS011;10107;51.198;6.824;2023-08-08T04:41:30;10.30;;;3.50;;
19889;SDS011;10107;51.198;6.824;2023-08-08T04:45:32;5.70;;;3.22;;
19889;SDS011;10107;51.198;6.824;2023-08-08T04:49:33;6.65;;;3.20;;
19889;SDS011;10107;51.198;6.824;2023-08-08T04:53:35;5.20;;;2.90;;
19889;SDS011;10107;51.198;6.824;2023-08-08T04:57:38;7.35;;;3.75;;
19889;SDS011;10107;51.198;6.824;2023-08-08T05:01:40;4.68;;;3.05;;
19889;SDS011;10107;51.198;6.824;2023-08-08T05:05:42;6.03;;;3.08;;
19889;SDS011;10107;51.198;6.824;2023-08-08T05:09:45;6.40;;;3.38;;
19889;SDS011;10107;51.198;6.824;2023-08-08T05:13:48;7.18;;;3.20;;
19889;SDS011;10107;51.198;6.824;2023-08-08T05:17:50;8.35;;;3.47;;
19889;SDS011;10107;51.198;6.824;2023-08-08T05:21:54;7.55;;;3.42;;
19889;SDS011;10107;51.198;6.824;2023-08-08T05:25:56;6.15;;;3.38;;
19889;SDS011;10107;51.198;6.824;2023-08-08T05:29:59;6.47;;;3.50;;
19889;SDS011;10107;51.198;6.824;2023-08-08T05:34:01;7.18;;;3.40;;
19889;SDS011;10107;51.198;6.824;2023-08-08T05:38:02;5.72;;;3.30;;
19889;SDS011;10107;51.198;6.824;2023-08-08T05:42:06;7.03;;;3.63;;
19889;SDS011;10107;51.198;6.824;2023-08-08T05:46:10;6.43;;;3.25;;
19889;SDS011;10107;51.198;6.824;2023-08-08T05:50:11;4.03;;;2.80;;
19889;SDS011;10107;51.198;6.824;2023-08-08T05:54:13;9.02;;;3.85;;
19889;SDS011;10107;51.198;6.824;2023-08-08T05:58:15;7.60;;;4.10;;
19889;SDS011;10107;51.198;6.824;2023-08-08T06:02:18;10.07;;;4.20;;
19889;SDS011;10107;51.198;6.824;2023-08-08T06:06:20;8.03;;;3.23;;
19889;SDS011;10107;51.198;6.824;2023-08-08T06:10:21;7.65;;;3.67;;
19889;SDS011;10107;51.198;6.824;2023-08-08T06:14:25;9.02;;;4.18;;
19889;SDS011;10107;51.198;6.824;2023-08-08T06:18:28;9.25;;;4.60;;
19889;SDS011;10107;51.198;6.824;2023-08-08T06:22:30;6.85;;;4.18;;
19889;SDS011;10107;51.198;6.824;2023-08-08T06:26:32;5.65;;;3.70;;
19889;SDS011;10107;51.198;6.824;2023-08-08T06:30:34;7.03;;;3.25;;
19889;SDS011;10107;51.198;6.824;2023-08-08T06:34:37;7.30;;;3.33;;
19889;SDS011;10107;51.198;6.824;2023-08-08T06:38:38;4.27;;;2.30;;
19889;SDS011;10107;51.198;6.824;2023-08-08T06:42:40;5.72;;;3.20;;
19889;SDS011;10107;51.198;6.824;2023-08-08T06:46:42;6.57;;;3.30;;
19889;SDS011;10107;51.198;6.824;2023-08-08T06:50:45;9.05;;;3.90;;
19889;SDS011;10107;51.198;6.824;2023-08-08T06:54:46;10.60;;;4.10;;
19889;SDS011;10107;51.198;6.824;2023-08-08T06:58:48;9.70;;;3.75;;
19889;SDS011;10107;51.198;6.824;2023-08-08T07:02:50;7.38;;;3.80;;
19889;SDS011;10107;51.198;6.824;2023-08-08T07:06:53;7.32;;;3.40;;
19889;SDS011;10107;51.198;6.824;2023-08-08T07:10:56;9.83;;;3.90;;
19889;SDS011;10107;51.198;6.824;2023-08-08T07:14:58;6.53;;;3.57;;
19889;SDS011;10107;51.198;6.824;2023-08-08T07:18:59;9.18;;;4.05;;
19889;SDS011;10107;51.198;6.824;2023-08-08T07:23:02;7.15;;;3.65;;
19889;SDS011;10107;51.198;6.824;2023-08-08T07:27:04;5.53;;;3.50;;
19889;SDS011;10107;51.198;6.824;2023-08-08T07:31:08;7.18;;;3.70;;
19889;SDS011;10107;51.198;6.824;2023-08-08T07:35:10;9.15;;;4.35;;
19889;SDS011;10107;51.198;6.824;2023-08-08T07:39:13;6.70;;;3.42;;
19889;SDS011;10107;51.198;6.824;2023-08-08T07:43:15;7.03;;;3.65;;
19889;SDS011;10107;51.198;6.824;2023-08-08T07:47:16;9.50;;;3.38;;
19889;SDS011;10107;51.198;6.824;2023-08-08T07:51:18;6.38;;;3.20;;
19889;SDS011;10107;51.198;6.824;2023-08-08T07:55:21;5.40;;;2.80;;
19889;SDS011;10107;51.198;6.824;2023-08-08T07:59:23;8.75;;;3.50;;
19889;SDS011;10107;51.198;6.824;2023-08-08T08:03:25;6.38;;;2.97;;
19889;SDS011;10107;51.198;6.824;2023-08-08T08:07:27;6.55;;;3.33;;
19889;SDS011;10107;51.198;6.824;2023-08-08T08:11:30;4.75;;;3.00;;
19889;SDS011;10107;51.198;6.824;2023-08-08T08:15:32;7.70;;;2.90;;
19889;SDS011;10107;51.198;6.824;2023-08-08T08:19:33;7.97;;;3.03;;
19889;SDS011;10107;51.198;6.824;2023-08-08T08:23:36;6.57;;;3.08;;
19889;SDS011;10107;51.198;6.824;2023-08-08T08:27:39;7.78;;;2.92;;
19889;SDS011;10107;51.198;6.824;2023-08-08T08:31:40;6.57;;;3.30;;
19889;SDS011;10107;51.198;6.824;2023-08-08T08:35:42;8.80;;;3.40;;
19889;SDS011;10107;51.198;6.824;2023-08-08T08:39:45;8.32;;;3.40;;
19889;SDS011;10107;51.198;6.824;2023-08-08T08:43:48;7.10;;;3.38;;
19889;SDS011;10107;51.198;6.824;2023-08-08T08:47:51;7.13;;;3.22;;
19889;SDS011;10107;51.198;6.824;2023-08-08T08:51:58;6.95;;;3.30;;
19889;SDS011;10107;51.198;6.824;2023-08-08T08:56:01;9.95;;;3.40;;
19889;SDS011;10107;51.198;6.824;2023-08-08T09:00:05;5.18;;;2.13;;
19889;SDS011;10107;51.198;6.824;2023-08-08T09:04:08;9.25;;;3.78;;
19889;SDS011;10107;51.198;6.824;2023-08-08T09:08:10;5.10;;;3.40;;
19889;SDS011;10107;51.198;6.824;2023-08-08T09:12:13;9.45;;;3.80;;
19889;SDS011;10107;51.198;6.824;2023-08-08T09:16:16;6.15;;;3.35;;
19889;SDS011;10107;51.198;6.824;2023-08-08T09:20:18;5.82;;;3.75;;
19889;SDS011;10107;51.198;6.824;2023-08-08T09:24:20;5.53;;;3.22;;
19889;SDS011;10107;51.198;6.824;2023-08-08T09:28:21;6.88;;;3.20;;
19889;SDS011;10107;51.198;6.824;2023-08-08T09:32:29;4.78;;;2.90;;
19889;SDS011;10107;51.198;6.824;2023-08-08T09:36:32;6.22;;;2.95;;
19889;SDS011;10107;51.198;6.824;2023-08-08T09:40:35;5.25;;;3.10;;
19889;SDS011;10107;51.198;6.824;2023-08-08T09:44:37;5.93;;;2.78;;
19889;SDS011;10107;51.198;6.824;2023-08-08T09:48:40;7.93;;;2.78;;
19889;SDS011;10107;51.198;6.824;2023-08-08T09:56:44;7.45;;;3.00;;
19889;SDS011;10107;51.198;6.824;2023-08-08T10:00:46;6.07;;;2.53;;
19889;SDS011;10107;51.198;6.824;2023-08-08T10:04:51;7.28;;;2.50;;
19889;SDS011;10107;51.198;6.824;2023-08-08T10:08:54;5.68;;;2.60;;
19889;SDS011;10107;51.198;6.824;2023-08-08T10:12:56;4.65;;;2.65;;
19889;SDS011;10107;51.198;6.824;2023-08-08T10:17:02;6.03;;;2.67;;
19889;SDS011;10107;51.198;6.824;2023-08-08T10:21:06;6.05;;;3.15;;
19889;SDS011;10107;51.198;6.824;2023-08-08T10:25:17;5.07;;;2.80;;
19889;SDS011;10107;51.198;6.824;2023-08-08T10:29:20;6.07;;;3.40;;
19889;SDS011;10107;51.198;6.824;2023-08-08T10:33:22;4.97;;;3.08;;
19889;SDS011;10107;51.198;6.824;2023-08-08T10:41:29;5.97;;;3.50;;
19889;SDS011;10107;51.198;6.824;2023-08-08T10:45:30;10.88;;;4.07;;
19889;SDS011;10107;51.198;6.824;2023-08-08T10:49:32;8.40;;;3.63;;
19889;SDS011;10107;51.198;6.824;2023-08-08T10:53:35;6.65;;;4.25;;
19889;SDS011;10107;51.198;6.824;2023-08-08T10:57:37;5.75;;;3.38;;
19889;SDS011;10107;51.198;6.824;2023-08-08T11:01:39;7.43;;;4.03;;
19889;SDS011;10107;51.198;6.824;2023-08-08T11:05:41;5.00;;;3.45;;
19889;SDS011;10107;51.198;6.824;2023-08-08T11:09:48;4.75;;;3.60;;
19889;SDS011;10107;51.198;6.824;2023-08-08T11:13:51;6.50;;;3.47;;
19889;SDS011;10107;51.198;6.824;2023-08-08T11:17:52;7.20;;;3.55;;
19889;SDS011;10107;51.198;6.824;2023-08-08T11:21:55;5.93;;;3.40;;
19889;SDS011;10107;51.198;6.824;2023-08-08T11:25:58;4.80;;;3.30;;
19889;SDS011;10107;51.198;6.824;2023-08-08T11:30:00;6.23;;;2.93;;
19889;SDS011;10107;51.198;6.824;2023-08-08T11:34:03;5.75;;;2.97;;
19889;SDS011;10107;51.198;6.824;2023-08-08T11:38:05;5.35;;;2.72;;
19889;SDS011;10107;51.198;6.824;2023-08-08T11:42:09;5.18;;;2.83;;
19889;SDS011;10107;51.198;6.824;2023-08-08T11:46:11;3.60;;;2.90;;
19889;SDS011;10107;51.198;6.824;2023-08-08T11:50:13;6.18;;;3.50;;
19889;SDS011;10107;51.198;6.824;2023-08-08T11:54:15;5.68;;;2.78;;
19889;SDS011;10107;51.198;6.824;2023-08-08T11:58:18;4.65;;;2.63;;
19889;SDS011;10107;51.198;6.824;2023-08-08T12:02:20;4.70;;;2.80;;
19889;SDS011;10107;51.198;6.824;2023-08-08T12:06:27;4.50;;;2.80;;
19889;SDS011;10107;51.198;6.824;2023-08-08T12:10:29;4.32;;;2.80;;
19889;SDS011;10107;51.198;6.824;2023-08-08T12:14:36;7.13;;;3.25;;
19889;SDS011;10107;51.198;6.824;2023-08-08T12:18:38;4.65;;;2.80;;
19889;SDS011;10107;51.198;6.824;2023-08-08T12:22:41;4.28;;;2.92;;
19889;SDS011;10107;51.198;6.824;2023-08-08T12:26:42;5.25;;;3.03;;
19889;SDS011;10107;51.198;6.824;2023-08-08T12:30:46;3.58;;;2.60;;
19889;SDS011;10107;51.198;6.824;2023-08-08T12:34:47;4.73;;;2.83;;
19889;SDS011;10107;51.198;6.824;2023-08-08T12:38:49;4.18;;;2.50;;
19889;SDS011;10107;51.198;6.824;2023-08-08T12:42:51;3.00;;;2.58;;
19889;SDS011;10107;51.198;6.824;2023-08-08T12:46:54;2.92;;;2.20;;
19889;SDS011;10107;51.198;6.824;2023-08-08T12:50:55;2.78;;;2.10;;
19889;SDS011;10107;51.198;6.824;2023-08-08T12:54:57;4.07;;;2.20;;
19889;SDS011;10107;51.198;6.824;2023-08-08T12:58:59;4.60;;;2.40;;
19889;SDS011;10107;51.198;6.824;2023-08-08T13:03:04;3.25;;;2.42;;
19889;SDS011;10107;51.198;6.824;2023-08-08T13:07:06;4.35;;;2.40;;
19889;SDS011;10107;51.198;6.824;2023-08-08T13:11:09;5.25;;;2.50;;
19889;SDS011;10107;51.198;6.824;2023-08-08T13:15:10;5.50;;;3.30;;
19889;SDS011;10107;51.198;6.824;2023-08-08T13:19:14;4.30;;;2.30;;
19889;SDS011;10107;51.198;6.824;2023-08-08T13:23:19;4.90;;;2.75;;
19889;SDS011;10107;51.198;6.824;2023-08-08T13:27:21;3.17;;;2.45;;
19889;SDS011;10107;51.198;6.824;2023-08-08T13:31:23;6.55;;;3.00;;
19889;SDS011;10107;51.198;6.824;2023-08-08T13:35:26;4.53;;;2.75;;
19889;SDS011;10107;51.198;6.824;2023-08-08T13:39:28;5.68;;;2.30;;
19889;SDS011;10107;51.198;6.824;2023-08-08T13:43:29;4.57;;;2.25;;
19889;SDS011;10107;51.198;6.824;2023-08-08T13:47:31;4.30;;;2.78;;
19889;SDS011;10107;51.198;6.824;2023-08-08T13:51:34;5.00;;;2.40;;
19889;SDS011;10107;51.198;6.824;2023-08-08T13:55:36;6.43;;;2.53;;
19889;SDS011;10107;51.198;6.824;2023-08-08T13:59:40;5.10;;;2.35;;
19889;SDS011;10107;51.198;6.824;2023-08-08T14:03:41;2.65;;;1.88;;
19889;SDS011;10107;51.198;6.824;2023-08-08T14:07:45;3.60;;;1.98;;
19889;SDS011;10107;51.198;6.824;2023-08-08T14:11:47;1.98;;;1.55;;
19889;SDS011;10107;51.198;6.824;2023-08-08T14:15:48;4.30;;;2.17;;
19889;SDS011;10107;51.198;6.824;2023-08-08T16:27:13;3.50;;;1.80;;
19889;SDS011;10107;51.198;6.824;2023-08-08T16:31:15;2.40;;;1.88;;
19889;SDS011;10107;51.198;6.824;2023-08-08T16:35:17;4.93;;;2.00;;
19889;SDS011;10107;51.198;6.824;2023-08-08T16:39:20;2.35;;;1.75;;
19889;SDS011;10107;51.198;6.824;2023-08-08T16:43:24;3.40;;;1.92;;
19889;SDS011;10107;51.198;6.824;2023-08-08T16:47:29;2.63;;;1.92;;
19889;SDS011;10107;51.198;6.824;2023-08-08T16:51:30;3.63;;;2.05;;
19889;SDS011;10107;51.198;6.824;2023-08-08T16:55:33;3.37;;;2.00;;
19889;SDS011;10107;51.198;6.824;2023-08-08T16:59:36;2.30;;;1.92;;
19889;SDS011;10107;51.198;6.824;2023-08-08T17:03:38;2.30;;;2.00;;
19889;SDS011;10107;51.198;6.824;2023-08-08T17:07:40;3.20;;;2.00;;
19889;SDS011;10107;51.198;6.824;2023-08-08T17:11:42;3.03;;;2.00;;
19889;SDS011;10107;51.198;6.824;2023-08-08T17:15:46;4.07;;;2.42;;
19889;SDS011;10107;51.198;6.824;2023-08-08T17:19:47;2.20;;;2.00;;
19889;SDS011;10107;51.198;6.824;2023-08-08T17:23:49;2.65;;;2.05;;
19889;SDS011;10107;51.198;6.824;2023-08-08T17:27:51;2.58;;;2.10;;
19889;SDS011;10107;51.198;6.824;2023-08-08T17:31:54;2.88;;;1.85;;
19889;SDS011;10107;51.198;6.824;2023-08-08T17:35:55;2.13;;;1.83;;
19889;SDS011;10107;51.198;6.824;2023-08-08T17:39:57;2.58;;;1.83;;
19889;SDS011;10107;51.198;6.824;2023-08-08T17:43:59;1.95;;;1.83;;
19889;SDS011;10107;51.198;6.824;2023-08-08T17:48:02;3.22;;;2.08;;
19889;SDS011;10107;51.198;6.824;2023-08-08T17:56:06;2.42;;;1.80;;
19889;SDS011;10107;51.198;6.824;2023-08-08T18:00:08;4.72;;;1.75;;
19889;SDS011;10107;51.198;6.824;2023-08-08T18:04:12;2.47;;;1.50;;
19889;SDS011;10107;51.198;6.824;2023-08-08T18:08:14;1.87;;;1.60;;
19889;SDS011;10107;51.198;6.824;2023-08-08T18:12:16;4.63;;;1.80;;
19889;SDS011;10107;51.198;6.824;2023-08-08T18:16:18;2.65;;;1.80;;
19889;SDS011;10107;51.198;6.824;2023-08-08T18:20:21;2.55;;;1.60;;
19889;SDS011;10107;51.198;6.824;2023-08-08T18:24:23;2.60;;;1.75;;
19889;SDS011;10107;51.198;6.824;2023-08-08T18:28:25;1.90;;;1.70;;
19889;SDS011;10107;51.198;6.824;2023-08-08T18:32:27;1.88;;;1.50;;
19889;SDS011;10107;51.198;6.824;2023-08-08T18:36:30;2.35;;;1.40;;
19889;SDS011;10107;51.198;6.824;2023-08-08T18:40:32;1.40;;;1.30;;
19889;SDS011;10107;51.198;6.824;2023-08-08T18:44:34;2.65;;;1.65;;
19889;SDS011;10107;51.198;6.824;2023-08-08T18:48:35;2.47;;;1.70;;
19889;SDS011;10107;51.198;6.824;2023-08-08T18:52:39;3.15;;;1.80;;
19889;SDS011;10107;51.198;6.824;2023-08-08T18:56:40;3.27;;;2.10;;
19889;SDS011;10107;51.198;6.824;2023-08-08T19:00:42;2.78;;;1.92;;
19889;SDS011;10107;51.198;6.824;2023-08-08T19:04:43;5.75;;;2.22;;
19889;SDS011;10107;51.198;6.824;2023-08-08T19:08:47;2.40;;;2.20;;
19889;SDS011;10107;51.198;6.824;2023-08-08T19:12:50;3.70;;;2.70;;
19889;SDS011;10107;51.198;6.824;2023-08-08T19:16:52;3.15;;;2.45;;
19889;SDS011;10107;51.198;6.824;2023-08-08T19:20:53;2.78;;;2.38;;
19889;SDS011;10107;51.198;6.824;2023-08-08T19:24:56;2.40;;;2.20;;
19889;SDS011;10107;51.198;6.824;2023-08-08T19:28:59;2.33;;;2.13;;
19889;SDS011;10107;51.198;6.824;2023-08-08T19:33:01;2.25;;;2.00;;
19889;SDS011;10107;51.198;6.824;2023-08-08T19:37:03;5.22;;;2.85;;
19889;SDS011;10107;51.198;6.824;2023-08-08T19:41:07;3.05;;;2.03;;
19889;SDS011;10107;51.198;6.824;2023-08-08T19:45:09;2.28;;;1.83;;
19889;SDS011;10107;51.198;6.824;2023-08-08T19:49:10;3.20;;;2.15;;
19889;SDS011;10107;51.198;6.824;2023-08-08T19:53:12;3.22;;;2.40;;
19889;SDS011;10107;51.198;6.824;2023-08-08T19:57:16;3.15;;;2.50;;
19889;SDS011;10107;51.198;6.824;2023-08-08T20:01:18;4.87;;;2.43;;
19889;SDS011;10107;51.198;6.824;2023-08-08T20:05:20;3.58;;;2.30;;
19889;SDS011;10107;51.198;6.824;2023-08-08T20:09:24;3.60;;;2.50;;
19889;SDS011;10107;51.198;6.824;2023-08-08T20:13:29;1.83;;;1.58;;
19889;SDS011;10107;51.198;6.824;2023-08-08T20:17:30;3.87;;;2.47;;
19889;SDS011;10107;51.198;6.824;2023-08-08T20:21:32;2.45;;;2.08;;
19889;SDS011;10107;51.198;6.824;2023-08-08T20:25:34;3.42;;;2.22;;
19889;SDS011;10107;51.198;6.824;2023-08-08T20:29:39;2.40;;;2.20;;
19889;SDS011;10107;51.198;6.824;2023-08-08T20:33:41;3.10;;;2.00;;
19889;SDS011;10107;51.198;6.824;2023-08-08T20:37:45;5.18;;;2.50;;
19889;SDS011;10107;51.198;6.824;2023-08-08T20:41:46;3.50;;;2.55;;
19889;SDS011;10107;51.198;6.824;2023-08-08T20:45:50;4.13;;;2.85;;
19889;SDS011;10107;51.198;6.824;2023-08-08T20:49:51;5.15;;;2.80;;
19889;SDS011;10107;51.198;6.824;2023-08-08T20:53:53;3.15;;;2.50;;
19889;SDS011;10107;51.198;6.824;2023-08-08T20:57:55;4.65;;;2.90;;
19889;SDS011;10107;51.198;6.824;2023-08-08T21:01:58;4.20;;;2.50;;
19889;SDS011;10107;51.198;6.824;2023-08-08T21:06:01;2.10;;;1.77;;
19889;SDS011;10107;51.198;6.824;2023-08-08T21:10:03;6.20;;;2.47;;
19889;SDS011;10107;51.198;6.824;2023-08-08T21:14:06;3.72;;;2.22;;
19889;SDS011;10107;51.198;6.824;2023-08-08T21:18:09;3.03;;;2.35;;
19889;SDS011;10107;51.198;6.824;2023-08-08T21:22:10;2.43;;;1.93;;
19889;SDS011;10107;51.198;6.824;2023-08-08T21:26:12;2.72;;;1.75;;
19889;SDS011;10107;51.198;6.824;2023-08-08T21:30:14;2.28;;;1.90;;
19889;SDS011;10107;51.198;6.824;2023-08-08T21:34:17;2.65;;;2.05;;
19889;SDS011;10107;51.198;6.824;2023-08-08T21:38:18;3.90;;;2.00;;
19889;SDS011;10107;51.198;6.824;2023-08-08T21:42:20;2.97;;;2.10;;
19889;SDS011;10107;51.198;6.824;2023-08-08T21:46:22;2.22;;;1.60;;
19889;SDS011;10107;51.198;6.824;2023-08-08T21:50:25;2.50;;;2.17;;
19889;SDS011;10107;51.198;6.824;2023-08-08T21:54:27;2.67;;;2.20;;
19889;SDS011;10107;51.198;6.824;2023-08-08T21:58:29;2.25;;;1.77;;
19889;SDS011;10107;51.198;6.824;2023-08-08T22:02:30;4.72;;;2.08;;
19889;SDS011;10107;51.198;6.824;2023-08-08T22:06:34;3.45;;;1.70;;
19889;SDS011;10107;51.198;6.824;2023-08-08T22:10:35;3.10;;;2.23;;
19889;SDS011;10107;51.198;6.824;2023-08-08T22:14:37;3.35;;;2.80;;
19889;SDS011;10107;51.198;6.824;2023-08-08T22:18:39;4.20;;;2.72;;
19889;SDS011;10107;51.198;6.824;2023-08-08T22:22:43;4.45;;;3.30;;
19889;SDS011;10107;51.198;6.824;2023-08-08T22:26:44;3.47;;;3.07;;
19889;SDS011;10107;51.198;6.824;2023-08-08T22:30:46;4.78;;;3.25;;
19889;SDS011;10107;51.198;6.824;2023-08-08T22:34:48;4.57;;;3.72;;
19889;SDS011;10107;51.198;6.824;2023-08-08T22:38:51;4.35;;;2.97;;
19889;SDS011;10107;51.198;6.824;2023-08-08T22:42:52;4.20;;;3.40;;
19889;SDS011;10107;51.198;6.824;2023-08-08T22:46:54;4.15;;;3.40;;
19889;SDS011;10107;51.198;6.824;2023-08-08T22:50:56;3.65;;;3.20;;
19889;SDS011;10107;51.198;6.824;2023-08-08T22:54:59;3.58;;;3.22;;
19889;SDS011;10107;51.198;6.824;2023-08-08T22:59:00;5.97;;;3.80;;
19889;SDS011;10107;51.198;6.824;2023-08-08T23:03:03;3.53;;;3.17;;
19889;SDS011;10107;51.198;6.824;2023-08-08T23:07:05;3.42;;;2.83;;
19889;SDS011;10107;51.198;6.824;2023-08-08T23:11:08;6.32;;;3.88;;
19889;SDS011;10107;51.198;6.824;2023-08-08T23:15:13;4.95;;;3.67;;
19889;SDS011;10107;51.198;6.824;2023-08-08T23:19:15;5.15;;;3.40;;
19889;SDS011;10107;51.198;6.824;2023-08-08T23:23:17;4.65;;;3.28;;
19889;SDS011;10107;51.198;6.824;2023-08-08T23:27:20;6.47;;;3.75;;
19889;SDS011;10107;51.198;6.824;2023-08-08T23:31:22;3.72;;;3.10;;
19889;SDS011;10107;51.198;6.824;2023-08-08T23:35:23;3.13;;;2.80;;
19889;SDS011;10107;51.198;6.824;2023-08-08T23:39:27;4.75;;;3.60;;
19889;SDS011;10107;51.198;6.824;2023-08-08T23:43:31;4.82;;;3.58;;
19889;SDS011;10107;51.198;6.824;2023-08-08T23:47:32;4.28;;;3.08;;
19889;SDS011;10107;51.198;6.824;2023-08-08T23:51:34;4.55;;;3.17;;
19889;SDS011;10107;51.198;6.824;2023-08-08T23:55:37;4.40;;;3.10;;
19889;SDS011;10107;51.198;6.824;2023-08-08T23:59:40;5.35;;;3.30;;
